Nearby METAR Reports

 

KBAX - Bad Axe, Michigan, USA
Distance from station: ESE 22mi, 35km
Updated: Tue, 25-Apr-2017 2:16pm EDT
Mostly cloudy
Mostly cloudy
 Wind from S
Wind: S 10 mph , 17 km/h
Temperature: 61°F , 16°C
Dew Point: 52°F , 11°C
Humidity: 72%
Barometer: 29.82 inHg , 1009.8 hPa
Clouds: Mostly cloudy
Visibility: 10 miles , 16 km
Cloud details: Partly cloudy 1700 ft
Partly cloudy 3500 ft
Mostly cloudy 7000 ft
2017/04/25 18:16 KBAX 251816Z AUTO 17009KT 10SM SCT017 SCT035 BKN070 16/11 A2982 RMK AO2 T01580114
KFNT - Flint, Michigan, USA
Distance from station: SSW 68mi, 109km
Updated: Tue, 25-Apr-2017 1:53pm EDT
Mostly cloudy
Mostly cloudy
 Wind from SSE
Wind: SSE 10 mph , 17 km/h
Temperature: 64°F , 18°C
Dew Point: 52°F , 11°C
Humidity: 64%
Barometer: 29.78 inHg , 1008.5 hPa
Clouds: Mostly cloudy
Visibility: 10 miles , 16 km
Cloud details: Mostly cloudy 8000 ft
2017/04/25 17:53 KFNT 251753Z 15009KT 10SM BKN080 18/11 A2978 RMK AO2 SLP086 T01830111 10183 20111 58022
KMBS - Saginaw, Michigan, USA
Distance from station: SW 44mi, 70km
Updated: Tue, 25-Apr-2017 1:53pm EDT
Few Clouds
Few Clouds
 Wind from S
Wind: S 12 mph , 19 km/h
Temperature: 66°F , 19°C
Dew Point: 52°F , 11°C
Humidity: 60%
Barometer: 29.79 inHg , 1008.8 hPa
Clouds: Few Clouds
Visibility: 10 miles , 16 km
Cloud details: Few Clouds 4100 ft
2017/04/25 17:53 KMBS 251753Z 17010KT 10SM FEW041 19/11 A2979 RMK AO2 SLP087 T01890106 10189 20100 58021
 
KDTW - Detroit/Wayne, Michigan, USA
Distance from station: SSE 117mi, 188km
Updated: Tue, 25-Apr-2017 1:53pm EDT
Mostly cloudy
Mostly cloudy
 Wind from ESE
Wind: ESE 13 mph , 20 km/h, Gust: 18 mph , 30 km/h
Temperature: 66°F , 19°C
Dew Point: 52°F , 11°C
Humidity: 60%
Barometer: 29.81 inHg , 1009.5 hPa
Clouds: Mostly cloudy
Visibility: 10 miles , 16 km
Cloud details: Few Clouds 5000 ft
Partly cloudy 12000 ft
Mostly cloudy 23000 ft
2017/04/25 17:53 KDTW 251753Z 11011G16KT 10SM FEW050 SCT120 BKN230 19/11 A2981 RMK AO2 SLP094 T01890111 10189 20117 58023
KP58 - Port Hope, Michigan, USA
Distance from station: ENE 30mi, 48km
Updated: Tue, 25-Apr-2017 1:51pm EDT

 Wind from SE
Wind: SE 12 mph , 19 km/h
Temperature: 52°F , 11°C
Dew Point: 48°F , 9°C
Humidity: 88%
Barometer: 29.82 inHg , 1009.8 hPa
2017/04/25 17:51 KP58 251751Z AUTO 13010KT 11/09 A2982 RMK AO1 SLP099 60001 T01060089 10106 20078 58020
KCFS - Caro/Tuscola, Michigan, USA
Distance from station: S 31mi, 50km
Updated: Tue, 25-Apr-2017 2:14pm EDT
Mostly cloudy
Mostly cloudy
 Wind from SSE
Wind: SSE 13 mph , 20 km/h, Gust: 16 mph , 26 km/h
Temperature: 66°F , 19°C
Dew Point: 54°F , 12°C
Humidity: 64%
Barometer: 29.79 inHg , 1008.8 hPa
Clouds: Mostly cloudy
Visibility: 10 miles , 16 km
Cloud details: Partly cloudy 5500 ft
Mostly cloudy 6500 ft
2017/04/25 18:14 KCFS 251814Z AUTO 15011G14KT 10SM SCT055 BKN065 19/12 A2979 RMK AO2 T01850115
 
KPHN - Port Huron, Michigan, USA
Distance from station: SSE 81mi, 131km
Updated: Tue, 25-Apr-2017 2:16pm EDT
Clear
Clear
 Wind from SE
Wind: SE 8 mph , 13 km/h
Temperature: 63°F , 17°C
Dew Point: 50°F , 10°C
Humidity: 64%
Barometer: 29.83 inHg , 1010.2 hPa
Clouds: Clear
Visibility: 10 miles , 16 km
2017/04/25 18:16 KPHN 251816Z AUTO 14007KT 110V170 10SM CLR 17/10 A2983 RMK AO2
KPTK - Pontiac, Michigan, USA
Distance from station: S 86mi, 138km
Updated: Tue, 25-Apr-2017 1:53pm EDT
Partly cloudy
Partly cloudy
 Wind from ESE
Wind: ESE 15 mph , 24 km/h
Temperature: 64°F , 18°C
Dew Point: 52°F , 11°C
Humidity: 64%
Barometer: 29.78 inHg , 1008.5 hPa
Clouds: Partly cloudy
Visibility: 10 miles , 16 km
Cloud details: Few Clouds 2600 ft
Few Clouds 9000 ft
Partly cloudy 25000 ft
2017/04/25 17:53 KPTK 251753Z 12013KT 10SM FEW026 FEW090 SCT250 18/11 A2978 RMK AO2 SLP085 T01780111 10178 20100 58024
KMTC - Selfridge Angb, Michigan, USA
Distance from station: SSE 94mi, 151km
Updated: Tue, 25-Apr-2017 1:58pm EDT
Few Clouds
Few Clouds
 Wind from SE
Wind: SE 14 mph , 22 km/h
Temperature: 61°F , 16°C
Dew Point: 54°F , 12°C
Humidity: 77%
Barometer: 29.82 inHg , 1009.8 hPa
Clouds: Few Clouds
Visibility: 10 miles , 16 km
Cloud details: Few Clouds 2500 ft
Few Clouds 8500 ft
Few Clouds 12000 ft
2017/04/25 17:58 KMTC 251758Z 13012KT 10SM FEW025 FEW085 FEW120 16/12 A2982 RMK AO2A SLP103 60001 T01560119 10156 20107 58017